sensor_id;sensor_type;location;lat;lon;timestamp;P1;durP1;ratioP1;P2;durP2;ratioP2
23800;SDS011;12081;48.614;10.226;2022-09-01T00:02:42;26.77;;;23.80;;
23800;SDS011;12081;48.614;10.226;2022-09-01T00:05:27;27.63;;;24.33;;
23800;SDS011;12081;48.614;10.226;2022-09-01T00:08:12;27.67;;;23.57;;
23800;SDS011;12081;48.614;10.226;2022-09-01T00:10:57;24.67;;;21.90;;
23800;SDS011;12081;48.614;10.226;2022-09-01T00:13:41;27.33;;;24.47;;
23800;SDS011;12081;48.614;10.226;2022-09-01T00:16:25;27.60;;;23.67;;
23800;SDS011;12081;48.614;10.226;2022-09-01T00:19:11;28.40;;;23.93;;
23800;SDS011;12081;48.614;10.226;2022-09-01T00:21:55;31.10;;;23.20;;
23800;SDS011;12081;48.614;10.226;2022-09-01T00:24:39;27.13;;;23.20;;
23800;SDS011;12081;48.614;10.226;2022-09-01T00:27:24;31.30;;;24.17;;
23800;SDS011;12081;48.614;10.226;2022-09-01T00:30:08;29.07;;;25.70;;
23800;SDS011;12081;48.614;10.226;2022-09-01T00:32:52;28.10;;;23.10;;
23800;SDS011;12081;48.614;10.226;2022-09-01T00:35:36;28.07;;;25.03;;
23800;SDS011;12081;48.614;10.226;2022-09-01T00:38:20;28.70;;;23.67;;
23800;SDS011;12081;48.614;10.226;2022-09-01T00:41:05;28.63;;;24.30;;
23800;SDS011;12081;48.614;10.226;2022-09-01T00:43:54;29.70;;;24.43;;
23800;SDS011;12081;48.614;10.226;2022-09-01T00:46:41;27.50;;;24.57;;
23800;SDS011;12081;48.614;10.226;2022-09-01T00:49:29;27.97;;;23.83;;
23800;SDS011;12081;48.614;10.226;2022-09-01T00:52:24;28.93;;;23.33;;
23800;SDS011;12081;48.614;10.226;2022-09-01T00:55:20;27.07;;;23.50;;
23800;SDS011;12081;48.614;10.226;2022-09-01T00:58:15;31.90;;;26.13;;
23800;SDS011;12081;48.614;10.226;2022-09-01T01:01:00;30.33;;;25.63;;
23800;SDS011;12081;48.614;10.226;2022-09-01T01:03:45;27.77;;;24.73;;
23800;SDS011;12081;48.614;10.226;2022-09-01T01:06:30;32.97;;;25.63;;
23800;SDS011;12081;48.614;10.226;2022-09-01T01:09:19;29.73;;;25.27;;
23800;SDS011;12081;48.614;10.226;2022-09-01T05:00:54;30.23;;;27.03;;
23800;SDS011;12081;48.614;10.226;2022-09-01T05:03:38;29.47;;;26.03;;
23800;SDS011;12081;48.614;10.226;2022-09-01T05:06:23;30.43;;;27.13;;
23800;SDS011;12081;48.614;10.226;2022-09-01T05:09:08;32.10;;;26.33;;
23800;SDS011;12081;48.614;10.226;2022-09-01T05:19:40;30.57;;;26.00;;
23800;SDS011;12081;48.614;10.226;2022-09-01T05:22:26;29.23;;;25.33;;
23800;SDS011;12081;48.614;10.226;2022-09-01T05:25:11;29.20;;;24.77;;
23800;SDS011;12081;48.614;10.226;2022-09-01T05:30:32;27.57;;;24.50;;
23800;SDS011;12081;48.614;10.226;2022-09-01T05:33:19;28.23;;;24.93;;
23800;SDS011;12081;48.614;10.226;2022-09-01T05:36:05;27.67;;;24.03;;
23800;SDS011;12081;48.614;10.226;2022-09-01T05:38:54;27.13;;;24.23;;
23800;SDS011;12081;48.614;10.226;2022-09-01T05:41:39;27.43;;;24.03;;
23800;SDS011;12081;48.614;10.226;2022-09-01T05:47:02;27.70;;;24.70;;
23800;SDS011;12081;48.614;10.226;2022-09-01T05:49:48;26.53;;;23.73;;
23800;SDS011;12081;48.614;10.226;2022-09-01T05:52:33;27.97;;;24.63;;
23800;SDS011;12081;48.614;10.226;2022-09-01T05:55:20;25.77;;;22.97;;
23800;SDS011;12081;48.614;10.226;2022-09-01T05:58:05;25.33;;;22.67;;
23800;SDS011;12081;48.614;10.226;2022-09-01T06:00:50;25.93;;;23.23;;
23800;SDS011;12081;48.614;10.226;2022-09-01T06:03:36;25.20;;;22.50;;
23800;SDS011;12081;48.614;10.226;2022-09-01T06:06:25;23.93;;;21.37;;
23800;SDS011;12081;48.614;10.226;2022-09-01T06:09:10;27.57;;;21.93;;
23800;SDS011;12081;48.614;10.226;2022-09-01T06:11:56;23.57;;;21.10;;
23800;SDS011;12081;48.614;10.226;2022-09-01T06:14:40;24.20;;;21.57;;
23800;SDS011;12081;48.614;10.226;2022-09-01T06:17:25;22.87;;;20.57;;
23800;SDS011;12081;48.614;10.226;2022-09-01T06:20:11;31.53;;;21.93;;
23800;SDS011;12081;48.614;10.226;2022-09-01T06:22:55;22.07;;;19.73;;
23800;SDS011;12081;48.614;10.226;2022-09-01T06:25:41;21.87;;;19.57;;
23800;SDS011;12081;48.614;10.226;2022-09-01T06:28:28;20.77;;;18.67;;
23800;SDS011;12081;48.614;10.226;2022-09-01T06:31:12;21.67;;;19.47;;
23800;SDS011;12081;48.614;10.226;2022-09-01T06:33:57;20.23;;;18.13;;
23800;SDS011;12081;48.614;10.226;2022-09-01T06:36:43;19.13;;;17.17;;
23800;SDS011;12081;48.614;10.226;2022-09-01T06:39:29;19.77;;;17.77;;
23800;SDS011;12081;48.614;10.226;2022-09-01T06:42:14;18.73;;;16.93;;
23800;SDS011;12081;48.614;10.226;2022-09-01T06:44:58;19.40;;;17.30;;
23800;SDS011;12081;48.614;10.226;2022-09-01T06:47:42;18.67;;;16.87;;
23800;SDS011;12081;48.614;10.226;2022-09-01T06:50:27;19.57;;;17.27;;
23800;SDS011;12081;48.614;10.226;2022-09-01T06:53:13;18.60;;;16.80;;
23800;SDS011;12081;48.614;10.226;2022-09-01T06:56:01;19.30;;;17.33;;
23800;SDS011;12081;48.614;10.226;2022-09-01T06:58:45;18.43;;;16.43;;
23800;SDS011;12081;48.614;10.226;2022-09-01T07:01:33;18.80;;;15.17;;
23800;SDS011;12081;48.614;10.226;2022-09-01T07:04:17;14.33;;;12.93;;
23800;SDS011;12081;48.614;10.226;2022-09-01T07:07:02;16.10;;;14.57;;
23800;SDS011;12081;48.614;10.226;2022-09-01T07:09:49;16.37;;;14.77;;
23800;SDS011;12081;48.614;10.226;2022-09-01T07:12:33;16.47;;;14.47;;
23800;SDS011;12081;48.614;10.226;2022-09-01T07:15:18;16.07;;;14.37;;
23800;SDS011;12081;48.614;10.226;2022-09-01T07:18:02;14.37;;;12.83;;
23800;SDS011;12081;48.614;10.226;2022-09-01T07:20:46;14.43;;;13.03;;
23800;SDS011;12081;48.614;10.226;2022-09-01T07:23:31;14.37;;;12.90;;
23800;SDS011;12081;48.614;10.226;2022-09-01T07:26:16;13.03;;;11.77;;
23800;SDS011;12081;48.614;10.226;2022-09-01T07:29:03;14.17;;;12.07;;
23800;SDS011;12081;48.614;10.226;2022-09-01T07:31:48;11.07;;;9.97;;
23800;SDS011;12081;48.614;10.226;2022-09-01T07:34:33;9.53;;;8.63;;
23800;SDS011;12081;48.614;10.226;2022-09-01T07:37:18;10.33;;;8.80;;
23800;SDS011;12081;48.614;10.226;2022-09-01T07:40:06;10.33;;;9.40;;
23800;SDS011;12081;48.614;10.226;2022-09-01T07:42:53;10.57;;;9.57;;
23800;SDS011;12081;48.614;10.226;2022-09-01T07:45:43;11.10;;;10.10;;
23800;SDS011;12081;48.614;10.226;2022-09-01T07:48:30;10.90;;;9.70;;
23800;SDS011;12081;48.614;10.226;2022-09-01T07:51:15;10.77;;;9.70;;
23800;SDS011;12081;48.614;10.226;2022-09-01T07:54:02;14.47;;;10.37;;
23800;SDS011;12081;48.614;10.226;2022-09-01T07:56:47;12.37;;;10.40;;
23800;SDS011;12081;48.614;10.226;2022-09-01T07:59:31;11.80;;;10.50;;
23800;SDS011;12081;48.614;10.226;2022-09-01T08:02:17;13.03;;;10.80;;
23800;SDS011;12081;48.614;10.226;2022-09-01T08:05:01;12.93;;;11.50;;
23800;SDS011;12081;48.614;10.226;2022-09-01T08:07:46;13.77;;;11.40;;
23800;SDS011;12081;48.614;10.226;2022-09-01T08:10:32;12.27;;;10.97;;
23800;SDS011;12081;48.614;10.226;2022-09-01T08:13:16;13.70;;;10.77;;
23800;SDS011;12081;48.614;10.226;2022-09-01T08:16:03;12.87;;;11.67;;
23800;SDS011;12081;48.614;10.226;2022-09-01T08:18:48;11.60;;;10.40;;
23800;SDS011;12081;48.614;10.226;2022-09-01T08:21:32;13.00;;;11.70;;
23800;SDS011;12081;48.614;10.226;2022-09-01T08:24:16;12.07;;;10.90;;
23800;SDS011;12081;48.614;10.226;2022-09-01T08:27:02;12.57;;;11.37;;
23800;SDS011;12081;48.614;10.226;2022-09-01T08:29:47;12.17;;;10.93;;
23800;SDS011;12081;48.614;10.226;2022-09-01T08:32:31;11.13;;;10.03;;
23800;SDS011;12081;48.614;10.226;2022-09-01T08:35:15;10.87;;;9.30;;
23800;SDS011;12081;48.614;10.226;2022-09-01T08:38:00;9.83;;;8.23;;
23800;SDS011;12081;48.614;10.226;2022-09-01T08:40:49;10.50;;;9.37;;
23800;SDS011;12081;48.614;10.226;2022-09-01T08:43:47;9.60;;;8.60;;
23800;SDS011;12081;48.614;10.226;2022-09-01T08:46:39;9.50;;;8.60;;
23800;SDS011;12081;48.614;10.226;2022-09-01T08:49:24;11.03;;;9.93;;
23800;SDS011;12081;48.614;10.226;2022-09-01T08:52:16;10.97;;;9.87;;
23800;SDS011;12081;48.614;10.226;2022-09-01T08:58:11;9.73;;;8.73;;
23800;SDS011;12081;48.614;10.226;2022-09-01T09:01:00;7.70;;;7.07;;
23800;SDS011;12081;48.614;10.226;2022-09-01T09:03:58;9.30;;;7.47;;
23800;SDS011;12081;48.614;10.226;2022-09-01T09:09:56;8.60;;;7.00;;
23800;SDS011;12081;48.614;10.226;2022-09-01T09:15:53;8.00;;;7.20;;
23800;SDS011;12081;48.614;10.226;2022-09-01T09:18:41;8.83;;;8.03;;
23800;SDS011;12081;48.614;10.226;2022-09-01T09:21:39;8.80;;;7.97;;
23800;SDS011;12081;48.614;10.226;2022-09-01T09:27:33;8.97;;;7.63;;
23800;SDS011;12081;48.614;10.226;2022-09-01T09:30:21;9.70;;;8.40;;
23800;SDS011;12081;48.614;10.226;2022-09-01T09:33:34;8.47;;;7.67;;
23800;SDS011;12081;48.614;10.226;2022-09-01T09:36:20;9.33;;;7.47;;
23800;SDS011;12081;48.614;10.226;2022-09-01T09:39:10;8.50;;;7.70;;
23800;SDS011;12081;48.614;10.226;2022-09-01T09:42:32;9.37;;;8.57;;
23800;SDS011;12081;48.614;10.226;2022-09-01T09:45:15;9.50;;;8.70;;
23800;SDS011;12081;48.614;10.226;2022-09-01T09:48:05;8.40;;;7.70;;
23800;SDS011;12081;48.614;10.226;2022-09-01T09:50:53;8.10;;;7.40;;
23800;SDS011;12081;48.614;10.226;2022-09-01T09:53:37;8.63;;;7.77;;
23800;SDS011;12081;48.614;10.226;2022-09-01T09:56:21;7.93;;;7.17;;
23800;SDS011;12081;48.614;10.226;2022-09-01T09:59:22;7.67;;;6.83;;
23800;SDS011;12081;48.614;10.226;2022-09-01T10:05:34;10.10;;;7.10;;
23800;SDS011;12081;48.614;10.226;2022-09-01T10:11:26;7.17;;;6.57;;
23800;SDS011;12081;48.614;10.226;2022-09-01T10:14:33;6.93;;;6.17;;
23800;SDS011;12081;48.614;10.226;2022-09-01T10:17:36;6.57;;;5.97;;
23800;SDS011;12081;48.614;10.226;2022-09-01T10:20:25;6.30;;;5.73;;
23800;SDS011;12081;48.614;10.226;2022-09-01T10:23:10;5.87;;;5.37;;
23800;SDS011;12081;48.614;10.226;2022-09-01T10:25:55;5.57;;;5.07;;
23800;SDS011;12081;48.614;10.226;2022-09-01T10:28:46;6.20;;;5.10;;
23800;SDS011;12081;48.614;10.226;2022-09-01T10:31:40;6.13;;;5.23;;
23800;SDS011;12081;48.614;10.226;2022-09-01T10:34:25;5.93;;;5.33;;
23800;SDS011;12081;48.614;10.226;2022-09-01T10:37:12;6.57;;;5.27;;
23800;SDS011;12081;48.614;10.226;2022-09-01T10:43:12;5.83;;;5.33;;
23800;SDS011;12081;48.614;10.226;2022-09-01T10:49:02;7.90;;;5.30;;
23800;SDS011;12081;48.614;10.226;2022-09-01T10:52:01;5.90;;;5.37;;
23800;SDS011;12081;48.614;10.226;2022-09-01T10:54:49;6.17;;;5.57;;
23800;SDS011;12081;48.614;10.226;2022-09-01T10:57:41;4.80;;;4.40;;
23800;SDS011;12081;48.614;10.226;2022-09-01T11:06:06;5.60;;;5.10;;
23800;SDS011;12081;48.614;10.226;2022-09-01T11:08:59;5.37;;;4.87;;
23800;SDS011;12081;48.614;10.226;2022-09-01T11:11:55;5.87;;;5.03;;
23800;SDS011;12081;48.614;10.226;2022-09-01T11:14:54;5.77;;;5.27;;
23800;SDS011;12081;48.614;10.226;2022-09-01T11:20:40;4.97;;;4.47;;
23800;SDS011;12081;48.614;10.226;2022-09-01T11:23:28;6.40;;;4.60;;
23800;SDS011;12081;48.614;10.226;2022-09-01T11:32:38;4.13;;;3.60;;
23800;SDS011;12081;48.614;10.226;2022-09-01T11:35:25;6.00;;;4.03;;
23800;SDS011;12081;48.614;10.226;2022-09-01T11:38:11;4.43;;;4.03;;
23800;SDS011;12081;48.614;10.226;2022-09-01T11:40:58;4.50;;;4.10;;
23800;SDS011;12081;48.614;10.226;2022-09-01T11:43:42;3.87;;;3.47;;
23800;SDS011;12081;48.614;10.226;2022-09-01T11:46:28;4.25;;;3.85;;
23800;SDS011;12081;48.614;10.226;2022-09-01T11:49:25;4.97;;;3.90;;
23800;SDS011;12081;48.614;10.226;2022-09-01T11:52:14;4.57;;;3.90;;
23800;SDS011;12081;48.614;10.226;2022-09-01T11:55:00;4.32;;;3.92;;
23800;SDS011;12081;48.614;10.226;2022-09-01T11:57:47;4.80;;;4.00;;
23800;SDS011;12081;48.614;10.226;2022-09-01T12:00:35;3.50;;;3.20;;
23800;SDS011;12081;48.614;10.226;2022-09-01T12:03:26;3.75;;;3.45;;
23800;SDS011;12081;48.614;10.226;2022-09-01T12:06:17;3.92;;;3.63;;
23800;SDS011;12081;48.614;10.226;2022-09-01T12:09:09;5.45;;;4.68;;
23800;SDS011;12081;48.614;10.226;2022-09-01T12:11:53;4.97;;;4.10;;
23800;SDS011;12081;48.614;10.226;2022-09-01T12:14:38;6.00;;;3.95;;
23800;SDS011;12081;48.614;10.226;2022-09-01T12:17:23;4.05;;;3.75;;
23800;SDS011;12081;48.614;10.226;2022-09-01T12:20:20;5.13;;;3.83;;
23800;SDS011;12081;48.614;10.226;2022-09-01T12:23:41;3.78;;;3.47;;
23800;SDS011;12081;48.614;10.226;2022-09-01T12:26:21;4.10;;;3.80;;
23800;SDS011;12081;48.614;10.226;2022-09-01T12:29:08;3.97;;;3.58;;
23800;SDS011;12081;48.614;10.226;2022-09-01T12:31:54;3.53;;;3.22;;
23800;SDS011;12081;48.614;10.226;2022-09-01T12:34:40;4.90;;;4.40;;
23800;SDS011;12081;48.614;10.226;2022-09-01T12:37:29;5.38;;;3.78;;
23800;SDS011;12081;48.614;10.226;2022-09-01T12:40:30;4.70;;;3.45;;
23800;SDS011;12081;48.614;10.226;2022-09-01T12:46:39;3.80;;;3.50;;
23800;SDS011;12081;48.614;10.226;2022-09-01T12:57:50;4.15;;;3.78;;
23800;SDS011;12081;48.614;10.226;2022-09-01T13:00:54;3.92;;;3.63;;
23800;SDS011;12081;48.614;10.226;2022-09-01T13:04:04;7.75;;;4.25;;
23800;SDS011;12081;48.614;10.226;2022-09-01T13:06:49;4.68;;;3.80;;
23800;SDS011;12081;48.614;10.226;2022-09-01T13:09:34;4.83;;;3.97;;
23800;SDS011;12081;48.614;10.226;2022-09-01T13:12:20;4.07;;;3.67;;
23800;SDS011;12081;48.614;10.226;2022-09-01T13:15:04;4.63;;;4.13;;
23800;SDS011;12081;48.614;10.226;2022-09-01T13:17:48;4.32;;;3.92;;
23800;SDS011;12081;48.614;10.226;2022-09-01T13:20:32;3.92;;;3.47;;
23800;SDS011;12081;48.614;10.226;2022-09-01T13:23:17;3.53;;;3.20;;
23800;SDS011;12081;48.614;10.226;2022-09-01T13:26:02;4.30;;;3.50;;
23800;SDS011;12081;48.614;10.226;2022-09-01T13:28:47;3.10;;;2.90;;
23800;SDS011;12081;48.614;10.226;2022-09-01T13:31:31;3.10;;;2.80;;
23800;SDS011;12081;48.614;10.226;2022-09-01T13:34:15;3.15;;;2.95;;
23800;SDS011;12081;48.614;10.226;2022-09-01T13:36:59;3.20;;;2.90;;
23800;SDS011;12081;48.614;10.226;2022-09-01T13:39:43;5.32;;;3.00;;
23800;SDS011;12081;48.614;10.226;2022-09-01T13:42:29;3.28;;;2.92;;
23800;SDS011;12081;48.614;10.226;2022-09-01T13:45:13;4.38;;;2.83;;
23800;SDS011;12081;48.614;10.226;2022-09-01T13:47:59;3.35;;;2.80;;
23800;SDS011;12081;48.614;10.226;2022-09-01T13:50:46;4.47;;;2.70;;
23800;SDS011;12081;48.614;10.226;2022-09-01T13:53:32;2.65;;;2.45;;
23800;SDS011;12081;48.614;10.226;2022-09-01T13:56:16;2.38;;;2.17;;
23800;SDS011;12081;48.614;10.226;2022-09-01T13:59:00;4.25;;;2.60;;
23800;SDS011;12081;48.614;10.226;2022-09-01T14:01:44;2.47;;;2.28;;
23800;SDS011;12081;48.614;10.226;2022-09-01T14:04:29;4.30;;;2.22;;
23800;SDS011;12081;48.614;10.226;2022-09-01T14:07:13;3.75;;;2.30;;
23800;SDS011;12081;48.614;10.226;2022-09-01T14:09:58;2.47;;;2.28;;
23800;SDS011;12081;48.614;10.226;2022-09-01T14:12:43;6.65;;;2.30;;
23800;SDS011;12081;48.614;10.226;2022-09-01T14:15:29;2.83;;;2.15;;
23800;SDS011;12081;48.614;10.226;2022-09-01T14:18:13;4.55;;;2.38;;
23800;SDS011;12081;48.614;10.226;2022-09-01T14:20:58;3.05;;;2.00;;
23800;SDS011;12081;48.614;10.226;2022-09-01T14:23:44;2.47;;;2.28;;
23800;SDS011;12081;48.614;10.226;2022-09-01T14:26:28;2.20;;;2.00;;
23800;SDS011;12081;48.614;10.226;2022-09-01T14:29:12;2.67;;;2.47;;
23800;SDS011;12081;48.614;10.226;2022-09-01T14:31:56;3.65;;;1.95;;
23800;SDS011;12081;48.614;10.226;2022-09-01T14:34:40;3.17;;;2.30;;
23800;SDS011;12081;48.614;10.226;2022-09-01T14:37:25;3.60;;;2.33;;
23800;SDS011;12081;48.614;10.226;2022-09-01T14:40:11;2.75;;;2.10;;
23800;SDS011;12081;48.614;10.226;2022-09-01T14:42:57;4.05;;;2.00;;
23800;SDS011;12081;48.614;10.226;2022-09-01T14:45:42;2.38;;;2.17;;
23800;SDS011;12081;48.614;10.226;2022-09-01T14:48:29;4.38;;;2.10;;
23800;SDS011;12081;48.614;10.226;2022-09-01T14:51:21;2.45;;;2.20;;
23800;SDS011;12081;48.614;10.226;2022-09-01T14:54:07;2.60;;;2.40;;
23800;SDS011;12081;48.614;10.226;2022-09-01T14:56:50;2.83;;;2.63;;
23800;SDS011;12081;48.614;10.226;2022-09-01T14:59:35;3.80;;;2.75;;
23800;SDS011;12081;48.614;10.226;2022-09-01T15:02:19;3.00;;;2.70;;
23800;SDS011;12081;48.614;10.226;2022-09-01T15:05:04;3.85;;;2.65;;
23800;SDS011;12081;48.614;10.226;2022-09-01T15:07:49;2.97;;;2.50;;
23800;SDS011;12081;48.614;10.226;2022-09-01T15:10:34;2.75;;;2.55;;
23800;SDS011;12081;48.614;10.226;2022-09-01T15:13:18;2.63;;;2.42;;
23800;SDS011;12081;48.614;10.226;2022-09-01T15:16:03;2.60;;;2.40;;
23800;SDS011;12081;48.614;10.226;2022-09-01T15:18:48;3.42;;;3.03;;
23800;SDS011;12081;48.614;10.226;2022-09-01T15:21:32;3.00;;;2.78;;
23800;SDS011;12081;48.614;10.226;2022-09-01T15:24:17;3.53;;;2.60;;
23800;SDS011;12081;48.614;10.226;2022-09-01T15:27:01;2.55;;;2.30;;
23800;SDS011;12081;48.614;10.226;2022-09-01T15:29:46;2.90;;;2.60;;
23800;SDS011;12081;48.614;10.226;2022-09-01T15:32:31;3.63;;;2.67;;
23800;SDS011;12081;48.614;10.226;2022-09-01T15:35:17;3.20;;;2.55;;
23800;SDS011;12081;48.614;10.226;2022-09-01T15:38:01;3.63;;;2.35;;
23800;SDS011;12081;48.614;10.226;2022-09-01T15:40:47;2.88;;;2.53;;
23800;SDS011;12081;48.614;10.226;2022-09-01T15:43:31;2.88;;;2.40;;
23800;SDS011;12081;48.614;10.226;2022-09-01T15:46:16;2.00;;;1.90;;
23800;SDS011;12081;48.614;10.226;2022-09-01T15:49:01;3.53;;;2.00;;
23800;SDS011;12081;48.614;10.226;2022-09-01T15:51:47;2.50;;;2.30;;
23800;SDS011;12081;48.614;10.226;2022-09-01T15:54:31;2.13;;;1.90;;
23800;SDS011;12081;48.614;10.226;2022-09-01T15:57:20;2.17;;;2.05;;
23800;SDS011;12081;48.614;10.226;2022-09-01T16:00:04;2.58;;;2.38;;
23800;SDS011;12081;48.614;10.226;2022-09-01T16:02:50;3.60;;;2.50;;
23800;SDS011;12081;48.614;10.226;2022-09-01T16:05:35;3.00;;;2.50;;
23800;SDS011;12081;48.614;10.226;2022-09-01T16:08:21;3.63;;;2.55;;
23800;SDS011;12081;48.614;10.226;2022-09-01T16:11:06;3.75;;;2.55;;
23800;SDS011;12081;48.614;10.226;2022-09-01T16:13:52;4.90;;;2.55;;
23800;SDS011;12081;48.614;10.226;2022-09-01T16:19:48;3.40;;;2.83;;
23800;SDS011;12081;48.614;10.226;2022-09-01T16:25:53;2.80;;;2.60;;
23800;SDS011;12081;48.614;10.226;2022-09-01T16:28:43;3.35;;;3.05;;
23800;SDS011;12081;48.614;10.226;2022-09-01T16:31:34;2.85;;;2.50;;
23800;SDS011;12081;48.614;10.226;2022-09-01T16:34:18;2.92;;;2.63;;
23800;SDS011;12081;48.614;10.226;2022-09-01T16:40:50;2.95;;;2.45;;
23800;SDS011;12081;48.614;10.226;2022-09-01T16:43:52;3.25;;;2.40;;
23800;SDS011;12081;48.614;10.226;2022-09-01T16:47:03;2.53;;;2.33;;
23800;SDS011;12081;48.614;10.226;2022-09-01T16:50:03;2.90;;;2.20;;
23800;SDS011;12081;48.614;10.226;2022-09-01T16:53:23;4.33;;;2.73;;
23800;SDS011;12081;48.614;10.226;2022-09-01T16:56:14;4.33;;;2.43;;
23800;SDS011;12081;48.614;10.226;2022-09-01T17:02:19;3.70;;;2.20;;
23800;SDS011;12081;48.614;10.226;2022-09-01T17:05:13;3.53;;;2.10;;
23800;SDS011;12081;48.614;10.226;2022-09-01T17:08:20;2.30;;;2.10;;
23800;SDS011;12081;48.614;10.226;2022-09-01T17:11:14;2.10;;;1.90;;
23800;SDS011;12081;48.614;10.226;2022-09-01T17:14:16;2.27;;;2.07;;
23800;SDS011;12081;48.614;10.226;2022-09-01T17:17:29;3.20;;;2.63;;
23800;SDS011;12081;48.614;10.226;2022-09-01T17:20:19;2.50;;;2.20;;
23800;SDS011;12081;48.614;10.226;2022-09-01T17:23:06;2.30;;;2.10;;
23800;SDS011;12081;48.614;10.226;2022-09-01T17:26:06;3.53;;;2.40;;
23800;SDS011;12081;48.614;10.226;2022-09-01T17:29:19;2.60;;;2.40;;
23800;SDS011;12081;48.614;10.226;2022-09-01T17:35:17;9.27;;;2.93;;
23800;SDS011;12081;48.614;10.226;2022-09-01T17:38:36;2.70;;;2.50;;
23800;SDS011;12081;48.614;10.226;2022-09-01T17:41:47;2.60;;;2.40;;
23800;SDS011;12081;48.614;10.226;2022-09-01T17:47:31;4.40;;;2.90;;
23800;SDS011;12081;48.614;10.226;2022-09-01T17:50:38;4.83;;;2.90;;
23800;SDS011;12081;48.614;10.226;2022-09-01T17:59:37;3.43;;;2.60;;
23800;SDS011;12081;48.614;10.226;2022-09-01T18:05:24;2.97;;;2.77;;
23800;SDS011;12081;48.614;10.226;2022-09-01T18:08:14;2.97;;;2.70;;
23800;SDS011;12081;48.614;10.226;2022-09-01T18:11:26;2.80;;;2.60;;
23800;SDS011;12081;48.614;10.226;2022-09-01T18:17:31;3.50;;;3.10;;
23800;SDS011;12081;48.614;10.226;2022-09-01T18:20:24;3.20;;;2.90;;
23800;SDS011;12081;48.614;10.226;2022-09-01T18:23:16;4.13;;;3.27;;
23800;SDS011;12081;48.614;10.226;2022-09-01T18:26:35;3.20;;;2.90;;
23800;SDS011;12081;48.614;10.226;2022-09-01T18:29:15;3.97;;;3.37;;
23800;SDS011;12081;48.614;10.226;2022-09-01T18:41:13;3.83;;;3.50;;
23800;SDS011;12081;48.614;10.226;2022-09-01T18:47:34;4.33;;;3.67;;
23800;SDS011;12081;48.614;10.226;2022-09-01T18:50:55;5.90;;;4.30;;
23800;SDS011;12081;48.614;10.226;2022-09-01T18:53:47;5.83;;;3.57;;
23800;SDS011;12081;48.614;10.226;2022-09-01T18:56:46;6.90;;;4.07;;
23800;SDS011;12081;48.614;10.226;2022-09-01T19:08:58;6.10;;;4.80;;
23800;SDS011;12081;48.614;10.226;2022-09-01T19:11:55;5.27;;;4.70;;
23800;SDS011;12081;48.614;10.226;2022-09-01T19:14:58;6.27;;;4.60;;
23800;SDS011;12081;48.614;10.226;2022-09-01T19:26:39;4.83;;;4.43;;
23800;SDS011;12081;48.614;10.226;2022-09-01T19:29:28;5.03;;;4.63;;
23800;SDS011;12081;48.614;10.226;2022-09-01T19:32:16;7.97;;;4.77;;
23800;SDS011;12081;48.614;10.226;2022-09-01T19:35:06;5.10;;;4.70;;
23800;SDS011;12081;48.614;10.226;2022-09-01T19:37:56;6.93;;;5.00;;
23800;SDS011;12081;48.614;10.226;2022-09-01T19:40:40;6.13;;;4.77;;
23800;SDS011;12081;48.614;10.226;2022-09-01T19:43:28;5.13;;;4.60;;
23800;SDS011;12081;48.614;10.226;2022-09-01T19:46:36;5.80;;;5.30;;
23800;SDS011;12081;48.614;10.226;2022-09-01T19:49:32;5.63;;;4.60;;
23800;SDS011;12081;48.614;10.226;2022-09-01T19:52:39;5.67;;;5.10;;
23800;SDS011;12081;48.614;10.226;2022-09-01T19:55:31;5.30;;;4.43;;
23800;SDS011;12081;48.614;10.226;2022-09-01T19:58:20;6.90;;;5.57;;
23800;SDS011;12081;48.614;10.226;2022-09-01T20:16:34;5.57;;;4.77;;
23800;SDS011;12081;48.614;10.226;2022-09-01T20:19:28;5.17;;;4.50;;
23800;SDS011;12081;48.614;10.226;2022-09-01T20:22:22;4.90;;;4.50;;
23800;SDS011;12081;48.614;10.226;2022-09-01T20:25:16;5.40;;;4.90;;
23800;SDS011;12081;48.614;10.226;2022-09-01T20:31:21;5.77;;;4.53;;
23800;SDS011;12081;48.614;10.226;2022-09-01T20:34:27;5.20;;;4.63;;
23800;SDS011;12081;48.614;10.226;2022-09-01T20:37:30;5.10;;;4.70;;
23800;SDS011;12081;48.614;10.226;2022-09-01T20:40:26;5.40;;;4.60;;
23800;SDS011;12081;48.614;10.226;2022-09-01T20:43:17;5.30;;;4.67;;
23800;SDS011;12081;48.614;10.226;2022-09-01T20:46:06;8.50;;;5.33;;
23800;SDS011;12081;48.614;10.226;2022-09-01T20:48:50;6.50;;;4.83;;
23800;SDS011;12081;48.614;10.226;2022-09-01T20:54:52;4.83;;;4.43;;
23800;SDS011;12081;48.614;10.226;2022-09-01T21:00:47;5.70;;;4.77;;
23800;SDS011;12081;48.614;10.226;2022-09-01T21:03:37;6.90;;;4.43;;
23800;SDS011;12081;48.614;10.226;2022-09-01T21:06:46;4.93;;;4.17;;
23800;SDS011;12081;48.614;10.226;2022-09-01T21:12:50;4.77;;;4.27;;
23800;SDS011;12081;48.614;10.226;2022-09-01T21:24:49;4.53;;;4.13;;
23800;SDS011;12081;48.614;10.226;2022-09-01T21:27:36;5.43;;;4.67;;
23800;SDS011;12081;48.614;10.226;2022-09-01T21:30:41;5.97;;;4.20;;
23800;SDS011;12081;48.614;10.226;2022-09-01T21:33:27;4.90;;;4.40;;
23800;SDS011;12081;48.614;10.226;2022-09-01T21:36:13;3.87;;;3.40;;
23800;SDS011;12081;48.614;10.226;2022-09-01T21:38:57;5.73;;;4.53;;
23800;SDS011;12081;48.614;10.226;2022-09-01T21:41:41;4.67;;;4.27;;
23800;SDS011;12081;48.614;10.226;2022-09-01T21:44:25;4.80;;;3.97;;
23800;SDS011;12081;48.614;10.226;2022-09-01T21:47:10;4.47;;;3.73;;
23800;SDS011;12081;48.614;10.226;2022-09-01T21:49:55;4.40;;;4.00;;
23800;SDS011;12081;48.614;10.226;2022-09-01T21:52:39;5.30;;;3.80;;
23800;SDS011;12081;48.614;10.226;2022-09-01T21:55:23;4.03;;;3.60;;
23800;SDS011;12081;48.614;10.226;2022-09-01T21:58:08;4.87;;;4.00;;
23800;SDS011;12081;48.614;10.226;2022-09-01T22:00:52;4.43;;;3.97;;
23800;SDS011;12081;48.614;10.226;2022-09-01T22:03:37;4.47;;;3.90;;
23800;SDS011;12081;48.614;10.226;2022-09-01T22:06:21;3.87;;;3.47;;
23800;SDS011;12081;48.614;10.226;2022-09-01T22:09:06;3.90;;;3.53;;
23800;SDS011;12081;48.614;10.226;2022-09-01T22:11:50;4.43;;;3.77;;
23800;SDS011;12081;48.614;10.226;2022-09-01T22:14:35;3.93;;;3.53;;
23800;SDS011;12081;48.614;10.226;2022-09-01T22:17:19;3.77;;;3.47;;
23800;SDS011;12081;48.614;10.226;2022-09-01T22:20:04;3.70;;;3.13;;
23800;SDS011;12081;48.614;10.226;2022-09-01T22:22:51;4.97;;;3.90;;
23800;SDS011;12081;48.614;10.226;2022-09-01T22:25:41;3.60;;;3.30;;
23800;SDS011;12081;48.614;10.226;2022-09-01T22:28:28;5.03;;;4.20;;
23800;SDS011;12081;48.614;10.226;2022-09-01T22:31:16;4.50;;;3.60;;
23800;SDS011;12081;48.614;10.226;2022-09-01T22:34:02;4.17;;;3.63;;
23800;SDS011;12081;48.614;10.226;2022-09-01T22:36:47;7.00;;;3.90;;
23800;SDS011;12081;48.614;10.226;2022-09-01T22:39:31;5.60;;;4.17;;
23800;SDS011;12081;48.614;10.226;2022-09-01T22:42:16;4.20;;;3.37;;
23800;SDS011;12081;48.614;10.226;2022-09-01T22:45:00;4.43;;;3.60;;
23800;SDS011;12081;48.614;10.226;2022-09-01T22:47:45;4.40;;;4.00;;
23800;SDS011;12081;48.614;10.226;2022-09-01T22:50:29;4.10;;;3.70;;
23800;SDS011;12081;48.614;10.226;2022-09-01T22:53:14;4.53;;;3.57;;
23800;SDS011;12081;48.614;10.226;2022-09-01T22:56:00;5.77;;;3.83;;
23800;SDS011;12081;48.614;10.226;2022-09-01T22:58:45;7.87;;;3.77;;
23800;SDS011;12081;48.614;10.226;2022-09-01T23:01:33;5.17;;;3.77;;
23800;SDS011;12081;48.614;10.226;2022-09-01T23:04:19;4.03;;;3.63;;
23800;SDS011;12081;48.614;10.226;2022-09-01T23:07:04;7.17;;;3.60;;
23800;SDS011;12081;48.614;10.226;2022-09-01T23:09:49;4.00;;;3.57;;